Sandia, Texas
Current Conditions -  °F | °C
As of 7:56 AM on Monday 20 Oct 2014 (Local Time) from KNOG Reporting Station
Broken Clouds Broken Clouds  
Wind Chill: 70°   Ceiling: 6000
Heat Index: 70°   Visibility: 10mi
Dew Point: 68°   Wind: 0mph
Humidity: 93%   Direction: NA
Pressure: 29.99"   Gusts: NA
Location:  28.02°N, 97.88°W
Report Text: KNOG 201256Z AUTO 00000KT 10SM BKN060 21/20 A2999 RMK AO2 SLP134 T02110200
Loading
Personal Weather Stations






























Interactive Weather Map
Tropical Storm Tracking
New forecast layout! Learn more

10-Day Weather Forecast

Advertisements
Track Severe Weather on mobile